createdAt,value
2022-11-11T00:01:28.185Z,95.27
2022-11-11T00:04:13.598Z,95.05
2022-11-11T00:06:59.291Z,95.14
2022-11-11T00:09:45.008Z,96.04
2022-11-11T00:12:30.482Z,96.46
2022-11-11T00:15:15.892Z,97.89
2022-11-11T00:18:19.900Z,96.26
2022-11-11T00:21:24.341Z,96.88
2022-11-11T00:24:48.467Z,97.16
2022-11-11T00:27:35.454Z,96.81
2022-11-11T00:30:21.773Z,96.08
2022-11-11T00:33:07.139Z,96.25
2022-11-11T00:35:54.556Z,96.82
2022-11-11T00:38:48.273Z,97.97
2022-11-11T00:41:34.066Z,98.50
2022-11-11T00:44:19.868Z,97.96
2022-11-11T00:47:24.266Z,97.77
2022-11-11T00:50:47.671Z,98.33
2022-11-11T00:53:35.464Z,98.94
2022-11-11T00:56:21.845Z,100.00
2022-11-11T00:59:09.027Z,99.19
2022-11-11T01:01:54.470Z,100.00
2022-11-11T01:04:39.982Z,100.00
2022-11-11T01:07:25.819Z,100.00
2022-11-11T01:10:11.631Z,99.89
2022-11-11T01:13:12.352Z,100.00
2022-11-11T01:16:07.058Z,100.00
2022-11-11T01:18:53.695Z,100.00
2022-11-11T01:21:39.388Z,99.91
2022-11-11T01:24:25.068Z,100.00
2022-11-11T01:27:10.361Z,100.00
2022-11-11T01:29:56.054Z,99.82
2022-11-11T01:32:42.196Z,99.64
2022-11-11T01:35:28.116Z,100.00
2022-11-11T01:38:14.207Z,99.99
2022-11-11T01:40:59.809Z,100.00
2022-11-11T01:43:45.095Z,100.00
2022-11-11T01:46:53.781Z,99.94
2022-11-11T01:50:05.857Z,100.00
2022-11-11T01:52:51.651Z,100.00
2022-11-11T01:55:37.542Z,100.00
2022-11-11T01:58:23.218Z,100.00
2022-11-11T02:01:09.350Z,99.91
2022-11-11T02:04:17.828Z,100.00
2022-11-11T02:07:07.863Z,100.00
2022-11-11T02:09:54.392Z,100.00
2022-11-11T02:12:58.689Z,100.00
2022-11-11T02:15:45.082Z,100.00
2022-11-11T02:18:33.333Z,100.00
2022-11-11T02:21:32.857Z,100.00
2022-11-11T02:24:21.682Z,100.00
2022-11-11T02:27:12.238Z,100.00
2022-11-11T02:30:02.158Z,100.00
2022-11-11T02:32:49.999Z,100.00
2022-11-11T02:35:38.676Z,100.00
2022-11-11T02:38:26.497Z,100.00
2022-11-11T02:41:30.961Z,100.00
2022-11-11T02:44:16.482Z,100.00
2022-11-11T02:47:02.226Z,100.00
2022-11-11T02:49:48.093Z,100.00
2022-11-11T02:52:34.040Z,100.00
2022-11-11T02:55:19.925Z,100.00
2022-11-11T02:58:05.543Z,100.00
2022-11-11T03:00:51.132Z,100.00
2022-11-11T03:03:36.976Z,100.00
2022-11-11T03:06:22.294Z,100.00
2022-11-11T03:09:08.173Z,100.00
2022-11-11T03:11:53.798Z,100.00
2022-11-11T03:14:39.422Z,100.00
2022-11-11T03:17:40.647Z,100.00
2022-11-11T03:20:45.387Z,100.00
2022-11-11T03:23:31.026Z,100.00
2022-11-11T03:26:16.265Z,100.00
2022-11-11T03:29:01.937Z,100.00
2022-11-11T03:31:47.464Z,100.00
2022-11-11T03:34:33.196Z,100.00
2022-11-11T03:37:37.511Z,100.00
2022-11-11T03:40:23.238Z,100.00
2022-11-11T03:43:09.211Z,100.00
2022-11-11T03:45:56.901Z,100.00
2022-11-11T03:48:42.542Z,100.00
2022-11-11T03:51:27.995Z,100.00
2022-11-11T03:54:13.822Z,100.00
2022-11-11T03:57:18.295Z,100.00
2022-11-11T04:00:12.031Z,100.00
2022-11-11T04:03:38.282Z,100.00
2022-11-11T04:06:42.655Z,100.00
2022-11-11T04:09:47.172Z,100.00
2022-11-11T04:12:55.383Z,100.00
2022-11-11T04:15:59.385Z,100.00
2022-11-11T04:19:03.736Z,100.00
2022-11-11T04:21:50.167Z,100.00
2022-11-11T04:24:54.610Z,99.81
2022-11-11T04:27:40.321Z,99.31
2022-11-11T04:30:25.974Z,99.70
2022-11-11T04:33:11.209Z,99.50
2022-11-11T04:35:56.854Z,99.41
2022-11-11T04:39:01.290Z,99.13
2022-11-11T04:42:07.227Z,99.71
2022-11-11T04:45:11.086Z,100.00
2022-11-11T04:48:03.772Z,100.00
2022-11-11T04:50:49.419Z,100.00
2022-11-11T04:53:34.835Z,100.00
2022-11-11T04:56:39.284Z,100.00
2022-11-11T04:59:24.877Z,100.00
2022-11-11T05:02:28.863Z,99.64
2022-11-11T05:05:14.777Z,99.68
2022-11-11T05:08:18.945Z,99.61
2022-11-11T05:11:04.464Z,99.26
2022-11-11T05:14:09.868Z,99.90
2022-11-11T05:17:16.369Z,99.62
2022-11-11T05:20:20.970Z,99.67
2022-11-11T05:23:06.584Z,99.83
2022-11-11T05:25:52.440Z,99.08
2022-11-11T05:28:37.939Z,99.40
2022-11-11T05:31:23.891Z,99.40
2022-11-11T05:34:09.548Z,99.08
2022-11-11T05:36:55.047Z,99.86
2022-11-11T05:39:40.417Z,99.46
2022-11-11T05:42:25.944Z,99.08
2022-11-11T05:45:11.512Z,98.93
2022-11-11T05:48:01.629Z,99.50
2022-11-11T05:50:47.671Z,98.73
2022-11-11T05:53:34.197Z,98.99
2022-11-11T05:56:20.012Z,98.26
2022-11-11T05:59:07.192Z,98.30
2022-11-11T06:01:53.153Z,98.39
2022-11-11T06:04:38.607Z,98.42
2022-11-11T06:07:24.469Z,97.94
2022-11-11T06:10:39.956Z,98.25
2022-11-11T06:13:25.938Z,98.64
2022-11-11T06:16:11.385Z,98.00
2022-11-11T06:18:57.307Z,97.59
2022-11-11T06:21:58.158Z,96.43
2022-11-11T06:25:03.876Z,96.33
2022-11-11T06:27:49.540Z,96.53
2022-11-11T06:30:49.474Z,96.15
2022-11-11T06:33:36.812Z,96.18
2022-11-11T06:36:22.693Z,95.87
2022-11-11T06:39:08.217Z,96.15
2022-11-11T06:41:54.025Z,95.27
2022-11-11T06:44:39.795Z,95.43
2022-11-11T06:47:25.054Z,95.13
2022-11-11T06:50:10.756Z,95.22
2022-11-11T06:52:56.592Z,94.66
2022-11-11T06:55:42.571Z,94.62
2022-11-11T06:58:28.409Z,94.60
2022-11-11T07:01:14.550Z,95.22
2022-11-11T07:04:00.013Z,93.71
2022-11-11T07:06:45.195Z,94.32
2022-11-11T07:09:30.993Z,94.28
2022-11-11T07:12:16.506Z,94.27
2022-11-11T07:15:01.846Z,93.83
2022-11-11T07:17:47.051Z,94.81
2022-11-11T07:20:32.823Z,94.09
2022-11-11T07:23:18.357Z,94.21
2022-11-11T07:26:03.817Z,93.97
2022-11-11T07:28:50.917Z,93.57
2022-11-11T07:31:36.732Z,93.74
2022-11-11T07:34:22.071Z,93.37
2022-11-11T07:37:07.135Z,93.40
2022-11-11T07:39:52.427Z,93.35
2022-11-11T07:42:42.222Z,93.23
2022-11-11T07:45:27.552Z,93.16
2022-11-11T07:48:13.278Z,93.04
2022-11-11T07:50:58.340Z,93.64
2022-11-11T07:53:44.062Z,93.47
2022-11-11T07:56:29.734Z,93.53
2022-11-11T07:59:15.565Z,93.06
2022-11-11T08:02:01.242Z,94.02
2022-11-11T08:04:52.389Z,93.54
2022-11-11T08:07:42.601Z,93.79
2022-11-11T08:10:28.326Z,93.23
2022-11-11T08:13:32.912Z,93.51
2022-11-11T08:16:18.605Z,93.21
2022-11-11T08:19:04.397Z,93.59
2022-11-11T08:21:49.706Z,93.54
2022-11-11T08:27:40.740Z,93.44
2022-11-11T08:30:26.170Z,93.18
2022-11-11T08:33:32.285Z,93.29
2022-11-11T08:36:20.782Z,93.21
2022-11-11T08:39:07.233Z,93.10
2022-11-11T08:41:52.678Z,92.53
2022-11-11T08:44:38.150Z,92.36
2022-11-11T08:47:25.102Z,92.97
2022-11-11T08:50:11.143Z,92.90
2022-11-11T08:52:57.727Z,92.85
2022-11-11T08:55:43.402Z,92.32
2022-11-11T08:58:29.078Z,91.79
2022-11-11T09:01:15.595Z,91.71
2022-11-11T09:04:16.725Z,91.33
2022-11-11T09:07:08.296Z,90.88
2022-11-11T09:09:53.724Z,90.87
2022-11-11T09:12:39.895Z,90.88
2022-11-11T09:15:26.573Z,90.78
2022-11-11T09:18:12.279Z,90.68
2022-11-11T09:21:00.921Z,90.46
2022-11-11T09:23:46.535Z,90.28
2022-11-11T09:26:31.751Z,89.98
2022-11-11T09:29:17.990Z,89.96
2022-11-11T09:32:03.493Z,89.98
2022-11-11T09:34:48.715Z,90.18
2022-11-11T09:37:34.489Z,90.37
2022-11-11T09:40:23.688Z,89.52
2022-11-11T09:43:33.140Z,89.48
2022-11-11T09:46:47.601Z,88.90
2022-11-11T09:49:51.859Z,89.64
2022-11-11T09:52:43.418Z,90.26
2022-11-11T09:56:31.334Z,90.18
2022-11-11T09:59:22.593Z,89.19
2022-11-11T10:02:19.538Z,88.94
2022-11-11T10:05:20.410Z,89.18
2022-11-11T10:08:43.583Z,88.83
2022-11-11T10:11:51.123Z,88.39
2022-11-11T10:14:40.329Z,88.62
2022-11-11T10:17:37.613Z,88.38
2022-11-11T10:20:38.279Z,88.88
2022-11-11T10:23:32.472Z,89.23
2022-11-11T10:26:37.526Z,88.92
2022-11-11T10:29:26.583Z,89.25
2022-11-11T10:32:22.318Z,89.11
2022-11-11T10:35:20.095Z,89.37
2022-11-11T10:38:17.523Z,89.70
2022-11-11T10:41:25.459Z,89.23
2022-11-11T10:44:21.533Z,89.36
2022-11-11T10:47:56.310Z,90.16
2022-11-11T10:50:44.426Z,89.91
2022-11-11T10:54:03.245Z,90.48
2022-11-11T10:56:57.327Z,90.13
2022-11-11T11:00:02.290Z,89.98
2022-11-11T11:02:50.669Z,90.38
2022-11-11T11:05:48.416Z,90.51
2022-11-11T11:08:46.151Z,89.91
2022-11-11T11:11:41.875Z,90.10
2022-11-11T11:14:36.822Z,90.14
2022-11-11T11:17:33.677Z,90.24
2022-11-11T11:20:21.087Z,90.62
2022-11-11T11:23:06.792Z,91.93
2022-11-11T11:25:56.909Z,91.71
2022-11-11T11:29:01.844Z,92.34
2022-11-11T11:31:47.824Z,92.33
2022-11-11T11:34:46.777Z,92.96
2022-11-11T11:37:32.510Z,93.05
2022-11-11T11:40:18.498Z,92.47
2022-11-11T11:43:27.093Z,92.83
2022-11-11T11:46:27.495Z,92.59
2022-11-11T11:49:22.563Z,92.14
2022-11-11T11:52:26.390Z,92.88
2022-11-11T11:55:12.132Z,92.42
2022-11-11T11:58:18.200Z,93.13
2022-11-11T12:01:10.614Z,94.13
2022-11-11T12:03:56.305Z,93.31
2022-11-11T12:06:47.879Z,93.57
2022-11-11T12:09:48.020Z,93.49
2022-11-11T12:12:45.991Z,93.90
2022-11-11T12:15:40.664Z,93.88
2022-11-11T12:18:31.875Z,93.64
2022-11-11T12:21:24.616Z,93.64
2022-11-11T12:24:18.626Z,93.33
2022-11-11T12:27:18.226Z,93.63
2022-11-11T12:30:28.801Z,93.81
2022-11-11T12:33:20.151Z,93.52
2022-11-11T12:36:10.926Z,93.54
2022-11-11T12:39:27.609Z,93.08
2022-11-11T12:42:18.778Z,93.25
2022-11-11T12:45:24.523Z,92.86
2022-11-11T12:48:24.870Z,93.30
2022-11-11T12:51:10.361Z,93.74
2022-11-11T12:54:02.052Z,93.66
2022-11-11T12:57:16.022Z,93.54
2022-11-11T13:00:20.734Z,93.71
2022-11-11T13:03:40.204Z,94.11
2022-11-11T13:07:01.602Z,94.08
2022-11-11T13:10:25.644Z,94.34
2022-11-11T13:13:35.574Z,94.52
2022-11-11T13:16:24.543Z,94.80
2022-11-11T13:19:22.100Z,94.38
2022-11-11T13:22:29.712Z,93.42
2022-11-11T13:25:26.379Z,93.51
2022-11-11T13:28:25.084Z,92.65
2022-11-11T13:31:30.273Z,92.54
2022-11-11T13:34:16.558Z,92.31
2022-11-11T13:37:05.953Z,92.43
2022-11-11T13:39:57.709Z,92.38
2022-11-11T13:42:51.028Z,92.35
2022-11-11T13:45:43.435Z,92.76
2022-11-11T13:48:33.969Z,92.55
2022-11-11T13:51:39.571Z,91.99
2022-11-11T13:54:29.855Z,92.59
2022-11-11T13:57:21.219Z,91.36
2022-11-11T14:00:29.021Z,90.66
2022-11-11T14:03:14.098Z,90.59
2022-11-11T14:06:14.168Z,89.46
2022-11-11T14:09:00.150Z,88.25
2022-11-11T14:11:45.901Z,88.96
2022-11-11T14:14:37.230Z,88.18
2022-11-11T14:17:23.265Z,88.39
2022-11-11T14:20:30.273Z,87.81
2022-11-11T14:23:18.595Z,88.55
2022-11-11T14:26:06.942Z,88.68
2022-11-11T14:28:55.070Z,88.14
2022-11-11T14:31:52.757Z,88.05
2022-11-11T14:34:50.478Z,87.75
2022-11-11T14:37:57.230Z,87.58
2022-11-11T14:40:42.814Z,87.98
2022-11-11T14:43:38.296Z,87.82
2022-11-11T14:46:24.059Z,86.95
2022-11-11T14:49:09.756Z,87.46
2022-11-11T14:52:00.015Z,86.40
2022-11-11T14:55:03.684Z,86.84
2022-11-11T14:57:51.164Z,86.50
2022-11-11T15:00:50.371Z,85.95
2022-11-11T15:03:50.055Z,86.12
2022-11-11T15:06:59.873Z,84.76
2022-11-11T15:09:47.879Z,85.40
2022-11-11T15:13:02.939Z,83.70
2022-11-11T15:15:59.473Z,84.14
2022-11-11T15:18:53.477Z,84.02
2022-11-11T15:21:56.795Z,83.08
2022-11-11T15:24:48.105Z,83.57
2022-11-11T15:27:42.370Z,83.11
2022-11-11T15:31:05.220Z,83.23
2022-11-11T15:34:18.294Z,83.95
2022-11-11T15:37:09.644Z,84.65
2022-11-11T15:39:57.893Z,84.68
2022-11-11T15:42:50.132Z,84.38
2022-11-11T15:45:36.736Z,84.77
2022-11-11T15:48:30.012Z,84.46
2022-11-11T15:51:31.397Z,84.99
2022-11-11T15:54:19.286Z,85.03
2022-11-11T15:57:33.433Z,84.81
2022-11-11T16:00:24.747Z,85.23
2022-11-11T16:03:36.211Z,85.10
2022-11-11T16:06:22.439Z,84.85
2022-11-11T16:09:12.631Z,84.86
2022-11-11T16:11:58.907Z,84.63
2022-11-11T16:14:48.233Z,84.76
2022-11-11T16:17:40.857Z,84.67
2022-11-11T16:20:44.507Z,84.72
2022-11-11T16:23:30.751Z,84.30
2022-11-11T16:26:17.394Z,84.49
2022-11-11T16:29:03.013Z,84.46
2022-11-11T16:31:48.486Z,84.17
2022-11-11T16:34:36.323Z,84.05
2022-11-11T16:37:22.362Z,84.04
2022-11-11T16:40:26.481Z,84.06
2022-11-11T16:43:15.964Z,84.50
2022-11-11T16:46:03.566Z,84.26
2022-11-11T16:48:52.173Z,85.00
2022-11-11T16:51:39.849Z,85.41
2022-11-11T16:54:30.215Z,85.74
2022-11-11T16:57:21.850Z,86.17
2022-11-11T17:00:13.918Z,85.93
2022-11-11T17:03:17.135Z,86.25
2022-11-11T17:06:07.973Z,86.83
2022-11-11T17:08:53.911Z,87.10
2022-11-11T17:11:39.363Z,87.27
2022-11-11T17:14:30.174Z,87.53
2022-11-11T17:17:15.994Z,87.28
2022-11-11T17:20:05.059Z,87.47
2022-11-11T17:22:58.486Z,87.74
2022-11-11T17:25:44.684Z,87.31
2022-11-11T17:28:36.058Z,87.48
2022-11-11T17:31:21.888Z,87.74
2022-11-11T17:34:08.768Z,87.16
2022-11-11T17:36:53.966Z,88.21
2022-11-11T17:39:43.273Z,88.99
2022-11-11T17:42:31.367Z,88.69
2022-11-11T17:45:17.360Z,88.73
2022-11-11T17:48:02.996Z,89.69
2022-11-11T17:50:48.689Z,89.70
2022-11-11T17:53:36.530Z,88.81
2022-11-11T17:56:22.087Z,89.34
2022-11-11T17:59:10.493Z,89.08
2022-11-11T18:01:56.212Z,89.86
2022-11-11T18:04:42.023Z,88.99
2022-11-11T18:07:27.603Z,89.25
2022-11-11T18:10:14.422Z,89.63
2022-11-11T18:13:00.152Z,90.22
2022-11-11T18:15:45.597Z,89.73
2022-11-11T18:18:32.179Z,89.79
2022-11-11T18:21:17.769Z,89.28
2022-11-11T18:24:06.883Z,89.47
2022-11-11T18:26:52.375Z,89.74
2022-11-11T18:29:38.225Z,89.88
2022-11-11T18:32:23.797Z,90.08
2022-11-11T18:35:09.563Z,89.28
2022-11-11T18:37:55.325Z,89.05
2022-11-11T18:40:40.798Z,89.15
2022-11-11T18:43:26.862Z,89.62
2022-11-11T18:46:24.010Z,89.93
2022-11-11T18:49:13.012Z,89.37
2022-11-11T18:51:58.926Z,89.33
2022-11-11T18:54:44.041Z,89.00
2022-11-11T18:57:31.378Z,89.41
2022-11-11T19:00:17.119Z,89.47
2022-11-11T19:03:03.047Z,88.95
2022-11-11T19:05:48.421Z,89.17
2022-11-11T19:08:35.122Z,89.29
2022-11-11T19:11:20.493Z,89.27
2022-11-11T19:14:07.011Z,89.22
2022-11-11T19:16:52.385Z,89.25
2022-11-11T19:19:37.997Z,89.12
2022-11-11T19:22:23.776Z,89.20
2022-11-11T19:25:09.936Z,88.94
2022-11-11T19:27:55.666Z,89.35
2022-11-11T19:30:41.678Z,90.12
2022-11-11T19:33:27.142Z,89.71
2022-11-11T19:36:19.387Z,90.11
2022-11-11T19:39:05.200Z,89.93
2022-11-11T19:41:51.098Z,89.86
2022-11-11T19:44:36.643Z,89.38
2022-11-11T19:47:22.397Z,90.05
2022-11-11T19:50:08.498Z,90.15
2022-11-11T19:52:53.701Z,90.08
2022-11-11T19:55:39.777Z,90.10
2022-11-11T19:58:25.294Z,90.09
2022-11-11T20:01:21.829Z,89.84
2022-11-11T20:04:07.463Z,90.17
2022-11-11T20:06:52.925Z,89.76
2022-11-11T20:09:38.584Z,90.60
2022-11-11T20:12:23.981Z,90.57
2022-11-11T20:15:09.796Z,90.00
2022-11-11T20:17:54.938Z,90.44
2022-11-11T20:20:40.414Z,90.64
2022-11-11T20:23:25.933Z,91.45
2022-11-11T20:26:14.325Z,91.70
2022-11-11T20:28:59.864Z,91.31
2022-11-11T20:31:45.532Z,91.93
2022-11-11T20:34:31.424Z,91.25
2022-11-11T20:37:16.877Z,92.44
2022-11-11T20:40:02.817Z,92.97
2022-11-11T20:42:48.163Z,92.39
2022-11-11T20:45:33.405Z,93.91
2022-11-11T20:48:19.089Z,93.60
2022-11-11T20:51:16.444Z,94.07
2022-11-11T20:54:01.944Z,95.12
2022-11-11T20:56:49.206Z,96.69
2022-11-11T20:59:35.013Z,97.10
2022-11-11T21:02:24.104Z,96.70
2022-11-11T21:05:09.824Z,97.70
2022-11-11T21:07:55.220Z,98.01
2022-11-11T21:10:40.693Z,97.14
2022-11-11T21:13:27.389Z,97.20
2022-11-11T21:16:17.657Z,97.85
2022-11-11T21:19:04.388Z,97.55
2022-11-11T21:21:49.820Z,97.74
2022-11-11T21:24:36.256Z,97.50
2022-11-11T21:27:21.722Z,97.83
2022-11-11T21:30:07.623Z,98.05
2022-11-11T21:32:53.426Z,98.21
2022-11-11T21:35:38.612Z,97.53
2022-11-11T21:38:24.174Z,96.83
2022-11-11T21:41:12.613Z,97.54
2022-11-11T21:43:58.876Z,96.62
2022-11-11T21:46:44.231Z,97.64
2022-11-11T21:49:29.842Z,97.27
2022-11-11T21:52:15.160Z,97.38
2022-11-11T21:55:00.879Z,96.82
2022-11-11T21:57:46.001Z,97.05
2022-11-11T22:00:31.137Z,97.26
2022-11-11T22:03:16.971Z,96.78
2022-11-11T22:06:13.211Z,96.62
2022-11-11T22:08:59.898Z,95.97
2022-11-11T22:11:45.099Z,95.47
2022-11-11T22:14:30.696Z,95.39
2022-11-11T22:17:16.307Z,95.18
2022-11-11T22:20:02.006Z,95.26
2022-11-11T22:22:47.737Z,95.44
2022-11-11T22:25:33.555Z,94.70
2022-11-11T22:28:19.311Z,94.92
2022-11-11T22:31:28.209Z,95.18
2022-11-11T22:34:14.753Z,94.57
2022-11-11T22:37:00.209Z,95.20
2022-11-11T22:39:45.479Z,94.44
2022-11-11T22:42:31.494Z,94.63
2022-11-11T22:45:17.018Z,94.31
2022-11-11T22:48:02.667Z,93.93
2022-11-11T22:50:47.904Z,93.91
2022-11-11T22:53:33.360Z,93.81
2022-11-11T22:56:19.857Z,94.33
2022-11-11T22:59:05.108Z,94.13
2022-11-11T23:01:50.652Z,94.52
2022-11-11T23:04:36.147Z,94.48
2022-11-11T23:07:21.779Z,94.36
2022-11-11T23:10:08.029Z,93.93
2022-11-11T23:12:58.472Z,94.55
2022-11-11T23:15:56.060Z,94.46
2022-11-11T23:18:41.946Z,95.67
2022-11-11T23:21:28.768Z,95.45
2022-11-11T23:24:14.213Z,95.14
2022-11-11T23:26:59.484Z,94.77
2022-11-11T23:29:49.774Z,94.44
2022-11-11T23:32:37.646Z,94.26
2022-11-11T23:35:23.234Z,93.91
2022-11-11T23:38:09.175Z,93.83
2022-11-11T23:40:54.523Z,93.11
2022-11-11T23:43:40.006Z,93.15
2022-11-11T23:46:25.791Z,92.89
2022-11-11T23:49:11.246Z,92.79
2022-11-11T23:51:56.902Z,93.17
2022-11-11T23:54:42.558Z,92.41
2022-11-11T23:57:27.918Z,93.50
